Time;durP1;ratioP1;P1;durP2;ratioP2;P2;SDS_P1;SDS_P2;PMS_P1;PMS_P2;Temp;Humidity;BMP_temperature;BMP_pressure;BME280_temperature;BME280_humidity;BME280_pressure;Samples;Min_cycle;Max_cycle;Signal;HPM_P1;HPM_P2
2021/03/08 00:02:16;;;;;;;;;;;;;;;;;;4961119;28;20291;-66
2021/03/08 00:04:42;;;;;;;;;;;;;;;;;;4951728;29;20303;-67
2021/03/08 00:07:09;;;;;;;;;;;;;;;;;;4957153;28;20451;-66
2021/03/08 00:09:38;;;;;;;;;;;;;;;;;;4957031;29;19969;-67
2021/03/08 00:12:05;;;;;;;;;;;;;;;;;;4956866;28;19974;-66
2021/03/08 00:14:31;;;;;;;;;;;;;;;;;;4959532;28;19950;-67
2021/03/08 00:16:58;;;;;;;;;;;;;;;;;;4953899;28;20045;-66
2021/03/08 00:19:24;;;;;;;;;;;;;;;;;;4958728;28;19958;-68
2021/03/08 00:21:51;;;;;;;;;;;;;;;;;;4956349;29;20342;-67
2021/03/08 00:24:17;;;;;;;;;;;;;;;;;;4958170;28;19953;-65
2021/03/08 00:26:44;;;;;;;;;;;;;;;;;;4956524;29;20032;-68
2021/03/08 00:29:10;;;;;;;;;;;;;;;;;;4954454;28;19962;-68
2021/03/08 00:31:37;;;;;;;;;;;;;;;;;;4955842;29;19993;-66
2021/03/08 00:34:03;;;;;;;;;;;;;;;;;;4950758;28;20022;-67
2021/03/08 00:36:30;;;;;;;;;;;;;;;;;;4957935;28;19962;-68
2021/03/08 00:38:56;;;;;;;;;;;;;;;;;;4959257;28;19927;-67
2021/03/08 00:41:23;;;;;;;;;;;;;;;;;;4956323;28;19927;-67
2021/03/08 00:43:49;;;;;;;;;;;;;;;;;;4955668;28;19962;-66
2021/03/08 00:46:16;;;;;;;;;;;;;;;;;;4954132;28;20303;-66
2021/03/08 00:48:42;;;;;;;;;;;;;;;;;;4960482;29;20395;-66
2021/03/08 00:51:09;;;;;;;;;;;;;;;;;;4957287;29;20379;-67
2021/03/08 00:53:35;;;;;;;;;;;;;;;;;;4954394;28;19962;-66
2021/03/08 00:56:02;;;;;;;;;;;;;;;;;;4950521;29;19974;-66
2021/03/08 00:58:29;;;;;;;;;;;;;;;;;;4952938;28;20418;-66
2021/03/08 01:00:55;;;;;;;;;;;;;;;;;;4956395;28;19934;-66
2021/03/08 01:03:22;;;;;;;;;;;;;;;;;;4957452;28;19930;-66
2021/03/08 01:05:48;;;;;;;;;;;;;;;;;;4957110;29;20446;-66
2021/03/08 01:08:15;;;;;;;;;;;;;;;;;;4955326;28;19976;-67
2021/03/08 01:10:41;;;;;;;;;;;;;;;;;;4959089;28;19974;-67
2021/03/08 01:13:08;;;;;;;;;;;;;;;;;;4956253;29;19930;-67
2021/03/08 01:15:34;;;;;;;;;;;;;;;;;;4953903;28;20029;-67
2021/03/08 01:18:01;;;;;;;;;;;;;;;;;;4963990;28;20047;-67
2021/03/08 01:20:27;;;;;;;;;;;;;;;;;;4956200;29;19926;-67
2021/03/08 01:22:54;;;;;;;;;;;;;;;;;;4954100;28;19977;-67
2021/03/08 01:25:20;;;;;;;;;;;;;;;;;;4957562;29;19940;-67
2021/03/08 01:27:47;;;;;;;;;;;;;;;;;;4952379;29;19985;-67
2021/03/08 01:30:13;;;;;;;;;;;;;;;;;;4952704;28;19930;-67
2021/03/08 01:32:40;;;;;;;;;;;;;;;;;;4958137;28;19977;-67
2021/03/08 01:35:06;;;;;;;;;;;;;;;;;;4954290;28;20005;-67
2021/03/08 01:37:33;;;;;;;;;;;;;;;;;;4954071;28;20021;-66
2021/03/08 01:39:59;;;;;;;;;;;;;;;;;;4953683;29;19930;-66
2021/03/08 01:42:26;;;;;;;;;;;;;;;;;;4953112;29;19994;-67
2021/03/08 01:44:52;;;;;;;;;;;;;;;;;;4955074;28;19972;-67
2021/03/08 01:47:19;;;;;;;;;;;;;;;;;;4960284;28;19957;-68
2021/03/08 01:49:45;;;;;;;;;;;;;;;;;;4944690;29;20404;-67
2021/03/08 01:52:12;;;;;;;;;;;;;;;;;;4960277;28;20017;-66
2021/03/08 01:54:38;;;;;;;;;;;;;;;;;;4958279;28;19973;-66
2021/03/08 01:57:05;;;;;;;;;;;;;;;;;;4955415;28;19932;-69
2021/03/08 01:59:31;;;;;;;;;;;;;;;;;;4949176;28;19989;-66
2021/03/08 02:01:58;;;;;;;;;;;;;;;;;;4949327;29;20077;-66
2021/03/08 02:04:24;;;;;;;;;;;;;;;;;;4951621;28;19950;-66
2021/03/08 02:06:51;;;;;;;;;;;;;;;;;;4953697;29;20189;-67
2021/03/08 02:09:17;;;;;;;;;;;;;;;;;;4952322;28;19965;-67
2021/03/08 02:11:44;;;;;;;;;;;;;;;;;;4953838;28;20293;-67
2021/03/08 02:14:11;;;;;;;;;;;;;;;;;;4957388;28;19930;-67
2021/03/08 02:16:37;;;;;;;;;;;;;;;;;;4958108;28;20399;-67
2021/03/08 02:19:04;;;;;;;;;;;;;;;;;;4956456;28;20013;-67
2021/03/08 02:21:30;;;;;;;;;;;;;;;;;;4958511;28;19977;-67
2021/03/08 02:23:57;;;;;;;;;;;;;;;;;;4953897;29;19927;-68
2021/03/08 02:26:23;;;;;;;;;;;;;;;;;;4951601;28;20265;-66
2021/03/08 02:28:50;;;;;;;;;;;;;;;;;;4957971;28;19933;-68
2021/03/08 02:31:16;;;;;;;;;;;;;;;;;;4953629;28;20025;-67
2021/03/08 02:33:43;;;;;;;;;;;;;;;;;;4951855;29;20028;-67
2021/03/08 02:36:10;;;;;;;;;;;;;;;;;;4953421;28;20400;-67
2021/03/08 02:38:36;;;;;;;;;;;;;;;;;;4955347;29;19954;-67
2021/03/08 02:41:03;;;;;;;;;;;;;;;;;;4955771;29;20029;-67
2021/03/08 02:43:30;;;;;;;;;;;;;;;;;;4954072;28;19937;-67
2021/03/08 02:45:56;;;;;;;;;;;;;;;;;;4955232;28;20356;-67
2021/03/08 02:48:23;;;;;;;;;;;;;;;;;;4955194;29;19926;-66
2021/03/08 02:50:49;;;;;;;;;;;;;;;;;;4949436;28;19937;-66
2021/03/08 02:53:16;;;;;;;;;;;;;;;;;;4952406;28;20081;-66
2021/03/08 02:55:42;;;;;;;;;;;;;;;;;;4951844;29;19926;-66
2021/03/08 02:58:09;;;;;;;;;;;;;;;;;;4949787;28;20029;-66
2021/03/08 03:00:35;;;;;;;;;;;;;;;;;;4951151;29;20049;-66
2021/03/08 03:03:02;;;;;;;;;;;;;;;;;;4952275;28;19998;-65
2021/03/08 03:05:28;;;;;;;;;;;;;;;;;;4956680;28;19985;-65
2021/03/08 03:07:55;;;;;;;;;;;;;;;;;;4953876;28;19926;-66
2021/03/08 03:10:25;;;;;;;;;;;;;;;;;;4957306;28;19931;-67
2021/03/08 03:12:51;;;;;;;;;;;;;;;;;;4954973;28;19930;-66
2021/03/08 03:15:18;;;;;;;;;;;;;;;;;;4955792;28;19969;-66
2021/03/08 03:17:44;;;;;;;;;;;;;;;;;;4956418;28;19941;-66
2021/03/08 03:20:11;;;;;;;;;;;;;;;;;;4960509;28;19930;-66
2021/03/08 03:22:37;;;;;;;;;;;;;;;;;;4956173;28;19926;-66
2021/03/08 03:25:04;;;;;;;;;;;;;;;;;;4955452;28;20025;-66
2021/03/08 03:27:30;;;;;;;;;;;;;;;;;;4958975;28;19994;-66
2021/03/08 03:29:57;;;;;;;;;;;;;;;;;;4956209;28;19966;-66
2021/03/08 03:32:23;;;;;;;;;;;;;;;;;;4956312;28;20017;-66
2021/03/08 03:34:50;;;;;;;;;;;;;;;;;;4958006;29;20021;-67
2021/03/08 03:37:16;;;;;;;;;;;;;;;;;;4956750;28;19974;-67
2021/03/08 03:39:43;;;;;;;;;;;;;;;;;;4954812;28;19938;-67
2021/03/08 03:42:09;;;;;;;;;;;;;;;;;;4955372;28;19954;-67
2021/03/08 03:44:36;;;;;;;;;;;;;;;;;;4952526;28;19962;-66
2021/03/08 03:47:02;;;;;;;;;;;;;;;;;;4945602;29;20031;-66
2021/03/08 03:49:29;;;;;;;;;;;;;;;;;;4942942;29;19962;-66
2021/03/08 03:51:55;;;;;;;;;;;;;;;;;;4947045;28;19938;-66
2021/03/08 03:54:22;;;;;;;;;;;;;;;;;;4946403;28;20018;-66
2021/03/08 03:56:48;;;;;;;;;;;;;;;;;;4944148;28;19926;-66
2021/03/08 03:59:15;;;;;;;;;;;;;;;;;;4940820;29;20089;-68
2021/03/08 04:01:41;;;;;;;;;;;;;;;;;;4963074;29;19990;-68
2021/03/08 04:04:08;;;;;;;;;;;;;;;;;;4964049;28;19986;-67
2021/03/08 04:06:34;;;;;;;;;;;;;;;;;;4965751;28;19926;-66
2021/03/08 04:09:01;;;;;;;;;;;;;;;;;;4948642;28;20008;-66
2021/03/08 04:11:27;;;;;;;;;;;;;;;;;;4950279;29;20025;-67
2021/03/08 04:13:54;;;;;;;;;;;;;;;;;;4957709;28;19933;-67
2021/03/08 04:16:20;;;;;;;;;;;;;;;;;;4960733;28;19933;-65
2021/03/08 04:18:47;;;;;;;;;;;;;;;;;;4949918;28;19933;-66
2021/03/08 04:21:13;;;;;;;;;;;;;;;;;;4944917;28;19927;-66
2021/03/08 04:23:40;;;;;;;;;;;;;;;;;;4949660;29;19933;-68
2021/03/08 04:26:06;;;;;;;;;;;;;;;;;;4945629;29;19962;-68
2021/03/08 04:28:33;;;;;;;;;;;;;;;;;;4951592;28;20362;-66
2021/03/08 04:30:59;;;;;;;;;;;;;;;;;;4955035;29;20017;-65
2021/03/08 04:33:26;;;;;;;;;;;;;;;;;;4953785;28;20033;-65
2021/03/08 04:36:01;;;;;;;;;;;;;;;;;;4954474;28;19969;-65
2021/03/08 04:38:27;;;;;;;;;;;;;;;;;;4948814;29;19926;-67
2021/03/08 04:40:54;;;;;;;;;;;;;;;;;;4946588;29;20021;-67
2021/03/08 04:43:22;;;;;;;;;;;;;;;;;;4952078;29;20029;-65
2021/03/08 04:45:48;;;;;;;;;;;;;;;;;;4947133;29;19927;-66
2021/03/08 04:48:14;;;;;;;;;;;;;;;;;;4946338;29;19972;-67
2021/03/08 04:50:41;;;;;;;;;;;;;;;;;;4949538;28;19950;-65
2021/03/08 04:53:08;;;;;;;;;;;;;;;;;;4954262;28;20403;-66
2021/03/08 04:55:34;;;;;;;;;;;;;;;;;;4953837;28;20123;-66
2021/03/08 04:58:01;;;;;;;;;;;;;;;;;;4954977;28;20418;-67
2021/03/08 05:00:27;;;;;;;;;;;;;;;;;;4945951;28;20025;-69
2021/03/08 05:02:54;;;;;;;;;;;;;;;;;;4942624;28;19965;-68
2021/03/08 05:05:20;;;;;;;;;;;;;;;;;;4946056;29;20298;-67
2021/03/08 05:07:47;;;;;;;;;;;;;;;;;;4945849;28;20384;-67
2021/03/08 05:10:13;;;;;;;;;;;;;;;;;;4953557;28;19933;-65
2021/03/08 05:12:40;;;;;;;;;;;;;;;;;;4945575;28;20383;-64
2021/03/08 05:15:06;;;;;;;;;;;;;;;;;;4945415;28;20293;-65
2021/03/08 05:17:33;;;;;;;;;;;;;;;;;;4941144;29;19933;-65
2021/03/08 05:19:59;;;;;;;;;;;;;;;;;;4945528;28;19934;-66
2021/03/08 05:22:26;;;;;;;;;;;;;;;;;;4947383;28;20021;-66
2021/03/08 05:24:52;;;;;;;;;;;;;;;;;;4951056;28;20013;-66
2021/03/08 05:27:19;;;;;;;;;;;;;;;;;;4953441;28;20021;-65
2021/03/08 05:29:45;;;;;;;;;;;;;;;;;;4952126;28;20306;-66
2021/03/08 05:32:12;;;;;;;;;;;;;;;;;;4948662;28;20359;-67
2021/03/08 05:34:38;;;;;;;;;;;;;;;;;;4947477;28;19933;-67
2021/03/08 05:37:05;;;;;;;;;;;;;;;;;;4953288;28;19994;-66
2021/03/08 05:39:31;;;;;;;;;;;;;;;;;;4949219;28;20443;-65
2021/03/08 05:41:58;;;;;;;;;;;;;;;;;;4952199;28;19953;-67
2021/03/08 05:44:24;;;;;;;;;;;;;;;;;;4950937;28;20280;-67
2021/03/08 05:46:51;;;;;;;;;;;;;;;;;;4953644;28;19930;-67
2021/03/08 05:49:18;;;;;;;;;;;;;;;;;;4946142;29;19931;-67
2021/03/08 05:51:44;;;;;;;;;;;;;;;;;;4946856;29;19927;-66
2021/03/08 05:54:11;;;;;;;;;;;;;;;;;;4953184;28;19930;-66
2021/03/08 05:56:38;;;;;;;;;;;;;;;;;;4951153;28;19927;-66
2021/03/08 05:59:04;;;;;;;;;;;;;;;;;;4947823;28;20410;-68
2021/03/08 06:01:31;;;;;;;;;;;;;;;;;;4947011;29;19931;-67
2021/03/08 06:03:57;;;;;;;;;;;;;;;;;;4951782;29;20846;-67
2021/03/08 06:06:24;;;;;;;;;;;;;;;;;;4946341;29;20021;-67
2021/03/08 06:08:50;;;;;;;;;;;;;;;;;;4952927;28;20021;-66
2021/03/08 06:11:17;;;;;;;;;;;;;;;;;;4950195;28;19927;-68
2021/03/08 06:13:43;;;;;;;;;;;;;;;;;;4942433;29;19927;-67
2021/03/08 06:16:10;;;;;;;;;;;;;;;;;;4950178;29;19926;-68
2021/03/08 06:18:37;;;;;;;;;;;;;;;;;;4949403;28;19927;-66
2021/03/08 06:21:03;;;;;;;;;;;;;;;;;;4950972;29;20033;-65
2021/03/08 06:23:30;;;;;;;;;;;;;;;;;;4946008;28;20028;-67
2021/03/08 06:25:56;;;;;;;;;;;;;;;;;;4944230;28;20364;-67
2021/03/08 06:28:23;;;;;;;;;;;;;;;;;;4939022;28;19933;-67
2021/03/08 06:30:49;;;;;;;;;;;;;;;;;;4948094;29;20391;-67
2021/03/08 06:33:16;;;;;;;;;;;;;;;;;;4956124;28;19933;-67
2021/03/08 06:35:43;;;;;;;;;;;;;;;;;;4952003;28;19926;-67
2021/03/08 06:38:10;;;;;;;;;;;;;;;;;;4947806;29;19926;-67
2021/03/08 06:40:36;;;;;;;;;;;;;;;;;;4947454;29;19926;-67
2021/03/08 06:43:03;;;;;;;;;;;;;;;;;;4950360;28;19989;-66
2021/03/08 06:45:29;;;;;;;;;;;;;;;;;;4944628;28;19937;-67
2021/03/08 06:47:56;;;;;;;;;;;;;;;;;;4944790;29;19949;-66
2021/03/08 06:50:22;;;;;;;;;;;;;;;;;;4945990;28;19933;-64
2021/03/08 06:52:49;;;;;;;;;;;;;;;;;;4949109;28;19946;-66
2021/03/08 06:55:15;;;;;;;;;;;;;;;;;;4943233;28;19930;-67
2021/03/08 06:57:42;;;;;;;;;;;;;;;;;;4948305;29;20197;-66
2021/03/08 07:00:09;;;;;;;;;;;;;;;;;;4949701;28;19926;-66
2021/03/08 07:02:36;;;;;;;;;;;;;;;;;;4948727;28;19973;-66
2021/03/08 07:05:02;;;;;;;;;;;;;;;;;;4951688;28;19927;-67
2021/03/08 07:07:29;;;;;;;;;;;;;;;;;;4944767;28;19982;-66
2021/03/08 07:09:55;;;;;;;;;;;;;;;;;;4943635;28;20387;-66
2021/03/08 07:12:22;;;;;;;;;;;;;;;;;;4957579;28;19934;-68
2021/03/08 07:14:48;;;;;;;;;;;;;;;;;;4944633;28;20443;-67
2021/03/08 07:17:15;;;;;;;;;;;;;;;;;;4946667;28;19927;-67
2021/03/08 07:19:41;;;;;;;;;;;;;;;;;;4945548;29;19930;-67
2021/03/08 07:22:08;;;;;;;;;;;;;;;;;;4941464;28;19934;-68
2021/03/08 07:24:34;;;;;;;;;;;;;;;;;;4944668;28;20410;-68
2021/03/08 07:27:01;;;;;;;;;;;;;;;;;;4940615;28;19945;-66
2021/03/08 07:29:28;;;;;;;;;;;;;;;;;;4941686;28;19927;-65
2021/03/08 07:31:54;;;;;;;;;;;;;;;;;;4945884;28;20326;-68
2021/03/08 07:34:21;;;;;;;;;;;;;;;;;;4946500;29;20200;-67
2021/03/08 07:36:47;;;;;;;;;;;;;;;;;;4950403;28;19926;-65
2021/03/08 07:39:14;;;;;;;;;;;;;;;;;;4942251;28;19982;-66
2021/03/08 07:41:40;;;;;;;;;;;;;;;;;;4947872;28;20272;-66
2021/03/08 07:44:07;;;;;;;;;;;;;;;;;;4942860;28;19926;-67
2021/03/08 07:46:33;;;;;;;;;;;;;;;;;;4941692;28;20077;-67
2021/03/08 07:49:00;;;;;;;;;;;;;;;;;;4940681;28;20363;-67
2021/03/08 07:51:26;;;;;;;;;;;;;;;;;;4948323;28;19952;-67
2021/03/08 07:53:53;;;;;;;;;;;;;;;;;;4948411;28;19927;-67
2021/03/08 07:56:19;;;;;;;;;;;;;;;;;;4949942;28;19965;-67
2021/03/08 07:58:46;;;;;;;;;;;;;;;;;;4953415;28;20367;-66
2021/03/08 08:01:16;;;;;;;;;;;;;;;;;;4951730;28;19926;-66
2021/03/08 08:03:43;;;;;;;;;;;;;;;;;;4947838;29;19926;-68
2021/03/08 08:06:09;;;;;;;;;;;;;;;;;;4948067;28;20104;-66
2021/03/08 08:08:37;;;;;;;;;;;;;;;;;;4953772;28;19973;-67
2021/03/08 08:11:03;;;;;;;;;;;;;;;;;;4948960;28;19972;-67
2021/03/08 08:13:33;;;;;;;;;;;;;;;;;;4944326;28;20306;-68
2021/03/08 08:15:59;;;;;;;;;;;;;;;;;;4949656;29;20043;-64
2021/03/08 08:18:27;;;;;;;;;;;;;;;;;;4944438;29;19990;-66
2021/03/08 08:20:54;;;;;;;;;;;;;;;;;;4945835;29;19926;-67
2021/03/08 08:23:20;;;;;;;;;;;;;;;;;;4948150;29;19926;-66
2021/03/08 08:25:47;;;;;;;;;;;;;;;;;;4948494;28;20025;-67
2021/03/08 08:28:13;;;;;;;;;;;;;;;;;;4946335;28;20370;-68
2021/03/08 08:30:40;;;;;;;;;;;;;;;;;;4947364;28;19927;-66
2021/03/08 08:33:06;;;;;;;;;;;;;;;;;;4946595;28;19938;-67
2021/03/08 08:35:33;;;;;;;;;;;;;;;;;;4945321;28;19958;-66
2021/03/08 08:37:59;;;;;;;;;;;;;;;;;;4952573;29;19938;-66
2021/03/08 08:40:26;;;;;;;;;;;;;;;;;;4954166;28;19965;-64
2021/03/08 08:42:52;;;;;;;;;;;;;;;;;;4955347;28;20105;-64
2021/03/08 08:45:19;;;;;;;;;;;;;;;;;;4956389;28;19999;-68
2021/03/08 08:47:45;;;;;;;;;;;;;;;;;;4958897;29;19986;-66
2021/03/08 08:50:12;;;;;;;;;;;;;;;;;;4951084;28;20000;-67
2021/03/08 08:52:38;;;;;;;;;;;;;;;;;;4950415;29;19957;-65
2021/03/08 08:55:05;;;;;;;;;;;;;;;;;;4958866;28;20061;-67
2021/03/08 08:57:31;;;;;;;;;;;;;;;;;;4954446;28;19992;-66
2021/03/08 09:00:06;;;;;;;;;;;;;;;;;;4947703;28;20021;-68
2021/03/08 09:02:33;;;;;;;;;;;;;;;;;;4945321;29;19933;-65
2021/03/08 09:05:00;;;;;;;;;;;;;;;;;;4950416;28;19941;-65
2021/03/08 09:07:26;;;;;;;;;;;;;;;;;;4951888;28;20429;-67
2021/03/08 09:09:53;;;;;;;;;;;;;;;;;;4951865;28;19933;-67
2021/03/08 09:12:23;;;;;;;;;;;;;;;;;;4950734;28;19940;-68
2021/03/08 09:14:51;;;;;;;;;;;;;;;;;;4949084;28;19926;-66
2021/03/08 09:17:17;;;;;;;;;;;;;;;;;;4950062;29;19948;-65
2021/03/08 09:19:44;;;;;;;;;;;;;;;;;;4947480;28;20307;-66
2021/03/08 09:22:10;;;;;;;;;;;;;;;;;;4950701;28;19941;-68
2021/03/08 09:24:36;;;;;;;;;;;;;;;;;;4953466;28;20560;-65
2021/03/08 09:27:03;;;;;;;;;;;;;;;;;;4950296;28;19926;-65
2021/03/08 09:29:29;;;;;;;;;;;;;;;;;;4952537;28;19926;-65
2021/03/08 09:31:56;;;;;;;;;;;;;;;;;;4951711;28;20021;-65
2021/03/08 09:34:23;;;;;;;;;;;;;;;;;;4951618;28;19981;-65
2021/03/08 09:36:49;;;;;;;;;;;;;;;;;;4955399;28;19926;-66
2021/03/08 09:39:17;;;;;;;;;;;;;;;;;;4951419;28;20409;-66
2021/03/08 09:41:43;;;;;;;;;;;;;;;;;;4952886;28;19933;-65
2021/03/08 09:44:10;;;;;;;;;;;;;;;;;;4969224;23;19941;-66
2021/03/08 09:46:36;;;;;;;;;;;;;;;;;;4988254;28;19961;-65
2021/03/08 09:49:04;;;;;;;;;;;;;;;;;;4984133;28;19926;-65
2021/03/08 09:51:31;;;;;;;;;;;;;;;;;;4989000;28;19926;-67
2021/03/08 09:53:58;;;;;;;;;;;;;;;;;;4982489;28;19972;-68
2021/03/08 09:56:26;;;;;;;;;;;;;;;;;;4988929;28;19930;-65
2021/03/08 09:58:52;;;;;;;;;;;;;;;;;;4991177;28;19925;-65
2021/03/08 10:01:19;;;;;;;;;;;;;;;;;;4991366;28;19988;-64
2021/03/08 10:03:45;;;;;;;;;;;;;;;;;;4989930;28;19926;-65
2021/03/08 10:06:12;;;;;;;;;;;;;;;;;;4985901;28;20008;-66
2021/03/08 10:08:39;;;;;;;;;;;;;;;;;;4988439;28;20286;-66
2021/03/08 10:11:05;;;;;;;;;;;;;;;;;;4984763;28;19926;-65
2021/03/08 10:13:32;;;;;;;;;;;;;;;;;;4984386;28;19949;-66
2021/03/08 10:15:58;;;;;;;;;;;;;;;;;;4990008;28;20009;-65
2021/03/08 10:18:25;;;;;;;;;;;;;;;;;;4986621;28;19988;-66
2021/03/08 10:20:51;;;;;;;;;;;;;;;;;;4985999;28;20438;-65
2021/03/08 10:23:18;;;;;;;;;;;;;;;;;;4985531;28;19933;-66
2021/03/08 10:25:44;;;;;;;;;;;;;;;;;;4985384;28;19926;-65
2021/03/08 10:28:11;;;;;;;;;;;;;;;;;;4980504;28;19926;-65
2021/03/08 10:30:37;;;;;;;;;;;;;;;;;;4978331;28;19980;-68
2021/03/08 10:33:04;;;;;;;;;;;;;;;;;;4980759;28;19985;-65
2021/03/08 10:35:35;;;;;;;;;;;;;;;;;;4989939;28;20013;-67
2021/03/08 10:38:02;;;;;;;;;;;;;;;;;;4984438;28;19925;-64
2021/03/08 10:40:28;;;;;;;;;;;;;;;;;;4976717;28;19980;-66
2021/03/08 10:42:55;;;;;;;;;;;;;;;;;;4986104;28;20517;-69
2021/03/08 10:45:21;;;;;;;;;;;;;;;;;;4981556;28;19930;-67
2021/03/08 10:47:48;;;;;;;;;;;;;;;;;;4989393;28;19984;-68
2021/03/08 10:50:14;;;;;;;;;;;;;;;;;;4981740;28;19934;-64
2021/03/08 10:52:41;;;;;;;;;;;;;;;;;;4986934;28;19927;-64
2021/03/08 10:55:07;;;;;;;;;;;;;;;;;;4984688;28;19984;-65
2021/03/08 10:57:34;;;;;;;;;;;;;;;;;;4979028;28;19930;-65
2021/03/08 11:00:00;;;;;;;;;;;;;;;;;;4987869;28;19930;-67
2021/03/08 11:02:27;;;;;;;;;;;;;;;;;;4982489;28;19973;-67
2021/03/08 11:04:53;;;;;;;;;;;;;;;;;;4981479;28;20461;-66
2021/03/08 11:07:20;;;;;;;;;;;;;;;;;;4986808;28;19926;-67
2021/03/08 11:09:46;;;;;;;;;;;;;;;;;;4981974;28;20444;-65
2021/03/08 11:12:13;;;;;;;;;;;;;;;;;;4985928;28;19930;-66
2021/03/08 11:14:39;;;;;;;;;;;;;;;;;;4983622;28;19926;-66
2021/03/08 11:17:06;;;;;;;;;;;;;;;;;;4985999;28;19929;-66
2021/03/08 11:19:32;;;;;;;;;;;;;;;;;;4986384;28;19930;-67
2021/03/08 11:21:59;;;;;;;;;;;;;;;;;;4989093;28;19937;-64
2021/03/08 11:24:30;;;;;;;;;;;;;;;;;;4985272;28;19926;-65
2021/03/08 11:26:57;;;;;;;;;;;;;;;;;;4989037;28;20028;-65
2021/03/08 11:29:23;;;;;;;;;;;;;;;;;;4985279;28;20021;-64
2021/03/08 11:31:50;;;;;;;;;;;;;;;;;;4987392;28;19926;-65
2021/03/08 11:34:16;;;;;;;;;;;;;;;;;;4990346;28;20025;-65
2021/03/08 11:36:43;;;;;;;;;;;;;;;;;;4990025;28;20118;-70
2021/03/08 11:39:10;;;;;;;;;;;;;;;;;;4990272;28;19940;-68
2021/03/08 11:41:36;;;;;;;;;;;;;;;;;;4989691;28;20020;-66
2021/03/08 11:44:03;;;;;;;;;;;;;;;;;;4986236;28;20382;-64
2021/03/08 11:46:29;;;;;;;;;;;;;;;;;;4990322;28;20049;-67
2021/03/08 11:48:57;;;;;;;;;;;;;;;;;;4990791;28;20321;-66
2021/03/08 11:51:23;;;;;;;;;;;;;;;;;;4991484;28;19979;-66
2021/03/08 11:53:50;;;;;;;;;;;;;;;;;;4987516;28;19940;-65
2021/03/08 11:56:16;;;;;;;;;;;;;;;;;;4989904;28;19926;-67
2021/03/08 11:58:43;;;;;;;;;;;;;;;;;;4990825;28;19925;-64
2021/03/08 12:01:10;;;;;;;;;;;;;;;;;;4989930;28;19929;-66
2021/03/08 12:03:36;;;;;;;;;;;;;;;;;;4986837;28;19965;-65
2021/03/08 12:06:02;;;;;;;;;;;;;;;;;;4990643;28;20020;-67
2021/03/08 12:08:29;;;;;;;;;;;;;;;;;;4984879;28;20064;-66
2021/03/08 12:10:56;;;;;;;;;;;;;;;;;;4990085;28;20197;-66
2021/03/08 12:13:22;;;;;;;;;;;;;;;;;;4985523;28;19926;-68
2021/03/08 12:15:51;;;;;;;;;;;;;;;;;;4986082;28;19934;-65
2021/03/08 12:18:17;;;;;;;;;;;;;;;;;;4990661;28;19964;-67
2021/03/08 12:20:44;;;;;;;;;;;;;;;;;;4986192;28;20392;-66
2021/03/08 12:23:11;;;;;;;;;;;;;;;;;;4992439;28;19925;-65
2021/03/08 12:25:37;;;;;;;;;;;;;;;;;;4989785;28;19977;-67
2021/03/08 12:28:04;;;;;;;;;;;;;;;;;;4986633;28;19925;-68
2021/03/08 12:30:30;;;;;;;;;;;;;;;;;;4990350;28;20383;-65
2021/03/08 12:32:57;;;;;;;;;;;;;;;;;;4987055;28;19952;-65
2021/03/08 12:35:23;;;;;;;;;;;;;;;;;;4988844;28;19929;-67
2021/03/08 12:37:50;;;;;;;;;;;;;;;;;;4998519;28;19937;-67
2021/03/08 12:40:17;;;;;;;;;;;;;;;;;;4988070;28;20081;-65
2021/03/08 12:42:43;;;;;;;;;;;;;;;;;;4985437;28;19966;-65
2021/03/08 12:45:10;;;;;;;;;;;;;;;;;;4988168;28;19925;-65
2021/03/08 12:47:36;;;;;;;;;;;;;;;;;;4986756;28;20410;-65
2021/03/08 12:50:03;;;;;;;;;;;;;;;;;;4987066;28;20048;-66
2021/03/08 12:52:30;;;;;;;;;;;;;;;;;;4985511;28;20311;-65
2021/03/08 12:54:56;;;;;;;;;;;;;;;;;;4984800;28;19926;-66
2021/03/08 12:57:23;;;;;;;;;;;;;;;;;;4987379;28;20016;-67
2021/03/08 12:59:49;;;;;;;;;;;;;;;;;;4988261;28;19926;-65
2021/03/08 13:02:16;;;;;;;;;;;;;;;;;;4987784;28;20016;-65
2021/03/08 13:04:42;;;;;;;;;;;;;;;;;;4988548;28;19952;-66
2021/03/08 13:07:09;;;;;;;;;;;;;;;;;;4988777;28;20371;-66
2021/03/08 13:09:35;;;;;;;;;;;;;;;;;;4990371;28;20279;-66
2021/03/08 13:12:02;;;;;;;;;;;;;;;;;;4986698;28;20394;-66
2021/03/08 13:14:28;;;;;;;;;;;;;;;;;;4986351;28;20413;-66
2021/03/08 13:16:55;;;;;;;;;;;;;;;;;;4994685;28;19932;-67
2021/03/08 13:19:21;;;;;;;;;;;;;;;;;;4988075;28;20020;-66
2021/03/08 13:21:48;;;;;;;;;;;;;;;;;;4988917;28;19949;-66
2021/03/08 13:24:14;;;;;;;;;;;;;;;;;;4984079;28;19926;-66
2021/03/08 13:26:41;;;;;;;;;;;;;;;;;;4988954;28;19929;-66
2021/03/08 13:29:07;;;;;;;;;;;;;;;;;;4989783;28;19999;-65
2021/03/08 13:31:34;;;;;;;;;;;;;;;;;;4988322;28;19926;-66
2021/03/08 13:34:00;;;;;;;;;;;;;;;;;;4984175;28;19980;-66
2021/03/08 13:36:27;;;;;;;;;;;;;;;;;;4985838;28;19999;-66
2021/03/08 13:38:53;;;;;;;;;;;;;;;;;;4988329;28;19929;-66
2021/03/08 13:41:20;;;;;;;;;;;;;;;;;;4989355;28;19937;-66
2021/03/08 13:43:46;;;;;;;;;;;;;;;;;;4988130;28;19925;-67
2021/03/08 13:46:13;;;;;;;;;;;;;;;;;;4984590;28;20420;-67
2021/03/08 13:48:39;;;;;;;;;;;;;;;;;;4985646;28;20065;-67
2021/03/08 13:51:06;;;;;;;;;;;;;;;;;;4987569;28;19980;-68
2021/03/08 13:53:32;;;;;;;;;;;;;;;;;;4986618;28;19930;-68
2021/03/08 13:55:59;;;;;;;;;;;;;;;;;;4994575;28;19988;-67
2021/03/08 13:58:25;;;;;;;;;;;;;;;;;;4992496;28;20014;-67
2021/03/08 14:00:52;;;;;;;;;;;;;;;;;;4985421;28;20302;-67
2021/03/08 14:03:18;;;;;;;;;;;;;;;;;;4988526;28;19934;-65
2021/03/08 14:05:45;;;;;;;;;;;;;;;;;;4986231;28;20078;-69
2021/03/08 14:08:11;;;;;;;;;;;;;;;;;;4983738;28;20404;-67
2021/03/08 14:10:38;;;;;;;;;;;;;;;;;;4985290;28;20013;-67
2021/03/08 14:13:04;;;;;;;;;;;;;;;;;;4985166;28;19973;-67
2021/03/08 14:15:31;;;;;;;;;;;;;;;;;;4987022;28;20020;-67
2021/03/08 14:17:58;;;;;;;;;;;;;;;;;;4983451;28;19938;-66
2021/03/08 14:20:25;;;;;;;;;;;;;;;;;;4986037;28;20355;-65
2021/03/08 14:22:52;;;;;;;;;;;;;;;;;;4985909;28;19926;-66
2021/03/08 14:25:18;;;;;;;;;;;;;;;;;;4986006;28;19945;-67
2021/03/08 14:27:45;;;;;;;;;;;;;;;;;;4982327;28;20305;-65
2021/03/08 14:30:11;;;;;;;;;;;;;;;;;;4986148;28;19933;-67
2021/03/08 14:32:38;;;;;;;;;;;;;;;;;;4987648;28;20350;-67
2021/03/08 14:35:04;;;;;;;;;;;;;;;;;;4986831;28;19977;-66
2021/03/08 14:37:31;;;;;;;;;;;;;;;;;;4988066;28;20291;-64
2021/03/08 14:40:00;;;;;;;;;;;;;;;;;;4982952;28;20430;-65
2021/03/08 14:42:27;;;;;;;;;;;;;;;;;;4984801;28;19949;-66
2021/03/08 14:44:53;;;;;;;;;;;;;;;;;;4986071;28;19929;-65
2021/03/08 14:47:20;;;;;;;;;;;;;;;;;;4986266;28;20348;-65
2021/03/08 14:49:46;;;;;;;;;;;;;;;;;;4987398;28;20029;-65
2021/03/08 14:52:13;;;;;;;;;;;;;;;;;;4983900;28;20017;-66
2021/03/08 14:54:39;;;;;;;;;;;;;;;;;;4980389;28;20024;-67
2021/03/08 14:57:06;;;;;;;;;;;;;;;;;;4983146;28;20013;-66
2021/03/08 14:59:32;;;;;;;;;;;;;;;;;;4984853;28;20024;-66
2021/03/08 15:01:59;;;;;;;;;;;;;;;;;;4978077;28;19929;-66
2021/03/08 15:04:25;;;;;;;;;;;;;;;;;;4987655;28;19925;-66
2021/03/08 15:06:52;;;;;;;;;;;;;;;;;;4982956;28;19973;-66
2021/03/08 15:09:18;;;;;;;;;;;;;;;;;;4984006;28;20353;-65
2021/03/08 15:11:45;;;;;;;;;;;;;;;;;;4983982;28;19933;-66
2021/03/08 15:14:11;;;;;;;;;;;;;;;;;;4983133;28;21319;-69
2021/03/08 15:16:38;;;;;;;;;;;;;;;;;;4983668;28;19926;-65
2021/03/08 15:19:04;;;;;;;;;;;;;;;;;;4984998;28;19933;-65
2021/03/08 15:21:31;;;;;;;;;;;;;;;;;;4984954;28;19997;-65
2021/03/08 15:23:57;;;;;;;;;;;;;;;;;;4983014;28;19977;-67
2021/03/08 15:26:24;;;;;;;;;;;;;;;;;;4985623;28;20024;-65
2021/03/08 15:28:50;;;;;;;;;;;;;;;;;;4985636;28;19973;-67
2021/03/08 15:31:17;;;;;;;;;;;;;;;;;;4985081;28;19934;-66
2021/03/08 15:33:43;;;;;;;;;;;;;;;;;;4986893;28;20279;-65
2021/03/08 15:36:10;;;;;;;;;;;;;;;;;;4983463;28;20009;-67
2021/03/08 15:38:36;;;;;;;;;;;;;;;;;;4983721;28;19976;-67
2021/03/08 15:41:03;;;;;;;;;;;;;;;;;;4985344;28;19926;-66
2021/03/08 15:43:29;;;;;;;;;;;;;;;;;;4985799;28;20072;-66
2021/03/08 15:45:56;;;;;;;;;;;;;;;;;;4986658;28;19926;-65
2021/03/08 15:48:22;;;;;;;;;;;;;;;;;;4983022;28;19926;-66
2021/03/08 15:50:49;;;;;;;;;;;;;;;;;;4980351;28;19952;-66
2021/03/08 15:53:16;;;;;;;;;;;;;;;;;;4984793;28;19952;-65
2021/03/08 15:55:42;;;;;;;;;;;;;;;;;;4983551;28;20302;-68
2021/03/08 15:58:09;;;;;;;;;;;;;;;;;;4984461;28;19982;-66
2021/03/08 16:00:35;;;;;;;;;;;;;;;;;;4982724;28;19980;-67
2021/03/08 16:03:02;;;;;;;;;;;;;;;;;;4984867;28;19932;-66
2021/03/08 16:05:28;;;;;;;;;;;;;;;;;;4985931;28;20279;-65
2021/03/08 16:07:55;;;;;;;;;;;;;;;;;;4985188;28;19974;-67
2021/03/08 16:10:21;;;;;;;;;;;;;;;;;;4983202;28;20394;-69
2021/03/08 16:12:48;;;;;;;;;;;;;;;;;;4987870;28;19980;-66
2021/03/08 16:15:15;;;;;;;;;;;;;;;;;;4981846;28;20004;-65
2021/03/08 16:17:46;;;;;;;;;;;;;;;;;;4981282;28;20025;-67
2021/03/08 16:20:13;;;;;;;;;;;;;;;;;;4989171;28;19929;-65
2021/03/08 16:22:39;;;;;;;;;;;;;;;;;;4990022;28;20020;-66
2021/03/08 16:25:06;;;;;;;;;;;;;;;;;;4988290;28;19925;-65
2021/03/08 16:27:32;;;;;;;;;;;;;;;;;;4987226;28;20361;-67
2021/03/08 16:29:59;;;;;;;;;;;;;;;;;;4986905;28;20016;-66
2021/03/08 16:32:25;;;;;;;;;;;;;;;;;;4985047;28;19973;-67
2021/03/08 16:34:52;;;;;;;;;;;;;;;;;;4986238;28;19968;-67
2021/03/08 16:37:18;;;;;;;;;;;;;;;;;;4988628;28;20356;-66
2021/03/08 16:39:45;;;;;;;;;;;;;;;;;;4988488;28;20439;-65
2021/03/08 16:42:11;;;;;;;;;;;;;;;;;;4984816;28;19926;-65